createdAt,value
2022-09-22T04:07:40.167Z,98696.91
2022-09-22T04:27:42.826Z,98679.50
2022-09-22T04:47:45.816Z,98706.56
2022-09-22T05:07:48.525Z,98708.13
2022-09-22T05:27:52.096Z,98704.19
2022-09-22T05:47:54.982Z,98698.66
2022-09-22T06:08:00.268Z,98710.88
2022-09-22T06:28:04.548Z,98741.56
2022-09-22T06:48:10.098Z,98744.16
2022-09-22T07:08:13.257Z,98748.31
2022-09-22T07:28:16.823Z,98729.28
2022-09-22T07:48:38.195Z,98716.72
2022-09-22T08:08:40.997Z,98714.06
2022-09-22T08:28:44.795Z,98730.91
2022-09-22T08:49:06.646Z,98727.53
2022-09-22T09:09:10.470Z,98731.28
2022-09-22T09:29:13.450Z,98719.16
2022-09-22T09:49:16.118Z,98714.47
2022-09-22T10:09:18.811Z,98722.53
2022-09-22T10:29:22.657Z,98750.25
2022-09-22T10:49:25.081Z,98733.22
2022-09-22T11:09:46.762Z,98707.97
2022-09-22T11:29:49.537Z,98726.59
2022-09-22T11:49:52.089Z,98706.19
2022-09-22T12:09:54.802Z,98681.34
2022-09-22T12:29:57.294Z,98666.59
2022-09-22T12:50:00.274Z,98641.56
2022-09-22T13:10:02.968Z,98631.50
2022-09-22T13:30:05.665Z,98612.47
2022-09-22T13:50:08.455Z,98616.84
2022-09-22T14:10:11.352Z,98598.41
2022-09-22T14:30:15.232Z,98596.59
2022-09-22T14:50:24.619Z,98605.03
2022-09-22T15:10:28.038Z,98605.25
2022-09-22T15:30:33.053Z,98615.16
2022-09-22T15:50:36.026Z,98621.06
2022-09-22T16:10:38.600Z,98607.25
2022-09-22T16:30:41.657Z,98623.81
2022-09-22T16:50:44.232Z,98630.97
2022-09-22T17:10:47.364Z,98628.19
2022-09-22T17:30:49.886Z,98629.41
2022-09-22T17:51:11.281Z,98640.12
2022-09-22T18:11:14.867Z,98630.50
2022-09-22T18:31:18.669Z,98654.53
2022-09-22T18:51:21.441Z,98667.22
2022-09-22T19:11:24.223Z,98674.66
2022-09-22T19:31:26.758Z,98668.69
2022-09-22T19:51:30.371Z,98667.66
2022-09-22T22:33:59.898Z,98660.19
2022-09-22T22:54:02.522Z,98649.88
2022-09-22T23:14:22.424Z,98626.97
